Time;durP1;ratioP1;P1;durP2;ratioP2;P2;SDS_P1;SDS_P2;PMS_P1;PMS_P2;Temp;Humidity;BMP_temperature;BMP_pressure;BME280_temperature;BME280_humidity;BME280_pressure;Samples;Min_cycle;Max_cycle;Signal;HPM_P1;HPM_P2
2024/01/31 00:01:35;;;;;;;0.60;0.60;;;9.00;83.70;;;;;;5045407;28;20462;-68
2024/01/31 00:04:00;;;;;;;1.35;0.93;;;8.90;83.60;;;;;;5036772;28;20040;-70
2024/01/31 00:06:26;;;;;;;1.65;0.98;;;9.00;83.70;;;;;;5031993;28;20045;-69
2024/01/31 00:08:52;;;;;;;0.52;0.52;;;8.90;83.60;;;;;;5038604;28;20096;-69
2024/01/31 00:11:19;;;;;;;2.45;1.15;;;8.90;83.60;;;;;;5030248;28;20113;-68
2024/01/31 00:13:45;;;;;;;1.92;1.17;;;8.90;83.60;;;;;;5027635;28;20036;-68
2024/01/31 00:16:13;;;;;;;0.80;0.55;;;8.90;83.70;;;;;;5061257;28;20063;-68
2024/01/31 00:18:40;;;;;;;1.65;0.88;;;8.90;83.60;;;;;;5030090;28;20116;-68
2024/01/31 00:21:05;;;;;;;2.10;0.85;;;8.90;83.60;;;;;;5029486;28;20033;-68
2024/01/31 00:23:31;;;;;;;0.68;0.60;;;8.90;83.50;;;;;;5031427;28;20103;-68
2024/01/31 00:25:57;;;;;;;1.77;0.90;;;8.90;83.50;;;;;;5028206;28;20030;-68
2024/01/31 00:28:24;;;;;;;2.50;0.93;;;8.90;83.50;;;;;;5029182;28;20428;-69
2024/01/31 00:30:49;;;;;;;0.77;0.68;;;8.90;83.50;;;;;;5029476;28;20029;-69
2024/01/31 00:33:15;;;;;;;0.95;0.60;;;8.90;83.60;;;;;;5027929;28;20036;-69
2024/01/31 00:35:41;;;;;;;3.70;1.42;;;8.80;83.60;;;;;;5030363;28;20079;-69
2024/01/31 00:38:06;;;;;;;0.98;0.80;;;8.90;83.60;;;;;;5029837;28;20029;-68
2024/01/31 00:40:32;;;;;;;1.85;0.70;;;8.90;83.60;;;;;;5035285;28;20025;-69
2024/01/31 00:42:58;;;;;;;1.85;1.48;;;8.90;83.50;;;;;;5029095;28;20033;-69
2024/01/31 00:45:24;;;;;;;2.05;1.00;;;8.80;84.10;;;;;;5028583;28;20053;-69
2024/01/31 00:47:50;;;;;;;3.08;0.73;;;8.80;83.50;;;;;;5041292;28;20029;-69
2024/01/31 00:50:15;;;;;;;1.85;0.80;;;8.80;83.60;;;;;;5026565;28;20147;-69
2024/01/31 00:52:44;;;;;;;1.48;0.55;;;8.80;83.70;;;;;;5029341;28;20056;-69
2024/01/31 00:55:10;;;;;;;3.25;1.05;;;8.80;84.30;;;;;;5026687;28;20033;-69
2024/01/31 00:57:36;;;;;;;1.10;0.70;;;8.80;83.70;;;;;;5027623;28;20029;-69
2024/01/31 01:00:08;;;;;;;1.58;0.50;;;8.80;83.70;;;;;;5026514;28;20509;-69
2024/01/31 01:02:36;;;;;;;2.25;0.73;;;8.80;83.70;;;;;;5031114;28;20086;-68
2024/01/31 01:05:03;;;;;;;1.27;0.60;;;8.80;83.60;;;;;;5040187;28;20029;-69
2024/01/31 01:07:28;;;;;;;3.60;0.95;;;8.80;83.60;;;;;;5030550;28;20489;-69
2024/01/31 01:09:54;;;;;;;1.33;0.77;;;8.80;83.60;;;;;;5034038;28;20071;-69
2024/01/31 01:12:20;;;;;;;1.25;0.75;;;8.80;83.60;;;;;;5035780;28;20029;-68
2024/01/31 01:14:45;;;;;;;0.98;0.88;;;8.80;84.00;;;;;;5062732;28;20033;-68
2024/01/31 01:17:11;;;;;;;1.30;0.77;;;8.80;83.70;;;;;;5023305;28;20055;-69
2024/01/31 01:19:37;;;;;;;1.83;0.55;;;8.80;83.60;;;;;;5034667;28;20026;-69
2024/01/31 01:22:04;;;;;;;2.08;0.60;;;8.80;83.50;;;;;;5029642;28;20042;-69
2024/01/31 01:24:30;;;;;;;1.42;1.02;;;8.90;83.50;;;;;;5032789;28;20112;-70
2024/01/31 01:26:55;;;;;;;2.08;0.75;;;8.80;83.30;;;;;;5030185;28;20044;-70
2024/01/31 01:29:21;;;;;;;0.90;0.60;;;8.80;83.40;;;;;;5031575;28;20141;-70
2024/01/31 01:31:47;;;;;;;0.35;0.35;;;8.80;83.60;;;;;;5032150;28;20114;-70
2024/01/31 01:34:12;;;;;;;1.73;0.65;;;8.80;83.60;;;;;;5028193;28;20061;-69
2024/01/31 01:36:38;;;;;;;0.85;0.38;;;8.70;83.60;;;;;;5028256;28;20424;-69
2024/01/31 01:39:04;;;;;;;0.68;0.40;;;8.80;83.60;;;;;;5032031;28;20095;-69
2024/01/31 01:41:29;;;;;;;2.28;0.50;;;8.80;83.50;;;;;;5034309;28;20029;-70
2024/01/31 01:43:55;;;;;;;0.90;0.90;;;8.80;83.40;;;;;;5036312;28;20105;-70
2024/01/31 01:46:23;;;;;;;0.70;0.50;;;8.80;83.30;;;;;;5029006;28;20064;-68
2024/01/31 01:48:50;;;;;;;0.35;0.35;;;8.80;83.80;;;;;;5028091;28;20021;-68
2024/01/31 01:51:17;;;;;;;0.75;0.55;;;8.90;83.30;;;;;;5027724;28;20397;-69
2024/01/31 01:53:45;;;;;;;0.80;0.50;;;8.80;83.20;;;;;;5030194;28;20465;-68
2024/01/31 01:56:14;;;;;;;0.70;0.50;;;8.90;83.20;;;;;;5027701;28;20105;-69
2024/01/31 01:58:40;;;;;;;0.95;0.80;;;8.80;83.10;;;;;;5026724;28;20063;-69
2024/01/31 02:01:07;;;;;;;0.70;0.40;;;8.80;83.10;;;;;;5032259;28;20033;-69
2024/01/31 02:03:35;;;;;;;2.20;0.75;;;8.80;83.20;;;;;;5033724;28;20029;-69
2024/01/31 02:06:01;;;;;;;0.75;0.50;;;8.80;83.20;;;;;;5035452;28;20040;-69
2024/01/31 02:08:27;;;;;;;1.08;0.55;;;8.80;83.20;;;;;;5030232;28;20049;-69
2024/01/31 02:10:53;;;;;;;3.75;1.05;;;8.80;83.10;;;;;;5029186;28;20041;-69
2024/01/31 02:13:19;;;;;;;2.05;0.63;;;8.80;83.10;;;;;;5059236;28;20103;-68
2024/01/31 02:15:55;;;;;;;1.08;0.70;;;8.80;83.10;;;;;;5027450;28;20400;-68
2024/01/31 02:18:22;;;;;;;0.30;0.30;;;8.80;83.20;;;;;;5030724;28;20037;-69
2024/01/31 02:20:48;;;;;;;2.03;0.50;;;8.80;83.20;;;;;;5018505;28;20480;-68
2024/01/31 02:23:15;;;;;;;0.85;0.50;;;8.90;83.10;;;;;;5030090;28;20087;-68
2024/01/31 02:25:41;;;;;;;0.90;0.45;;;8.90;83.00;;;;;;5030602;28;20507;-68
2024/01/31 02:28:06;;;;;;;1.38;0.40;;;8.80;82.90;;;;;;5031902;28;20081;-69
2024/01/31 02:30:32;;;;;;;2.67;0.82;;;8.80;82.90;;;;;;5029162;28;20463;-69
2024/01/31 02:32:58;;;;;;;0.30;0.30;;;8.80;83.00;;;;;;5028732;28;20508;-68
2024/01/31 02:35:24;;;;;;;0.95;0.57;;;8.80;83.00;;;;;;5027564;28;20033;-69
2024/01/31 02:37:50;;;;;;;1.65;1.00;;;8.80;83.10;;;;;;5031138;28;20026;-68
2024/01/31 02:40:16;;;;;;;1.05;0.43;;;8.80;83.10;;;;;;5032215;28;20028;-68
2024/01/31 02:42:43;;;;;;;1.65;0.45;;;8.80;83.00;;;;;;5030527;28;20021;-68
2024/01/31 02:45:09;;;;;;;1.02;0.60;;;8.80;83.10;;;;;;5030598;28;20480;-68
2024/01/31 02:47:35;;;;;;;0.30;0.30;;;8.80;83.10;;;;;;5028296;28;20093;-69
2024/01/31 02:50:01;;;;;;;0.68;0.50;;;8.70;83.10;;;;;;5027195;28;20095;-69
2024/01/31 02:52:27;;;;;;;1.27;0.57;;;8.70;83.20;;;;;;5029087;28;20025;-68
2024/01/31 02:54:53;;;;;;;1.55;0.60;;;8.70;83.30;;;;;;5026184;28;20083;-69
2024/01/31 02:57:19;;;;;;;0.30;0.30;;;8.70;83.40;;;;;;5025804;28;20520;-69
2024/01/31 02:59:45;;;;;;;0.82;0.63;;;8.70;83.40;;;;;;5056385;28;20485;-69
2024/01/31 03:02:13;;;;;;;1.65;0.50;;;8.70;83.30;;;;;;5036820;28;20080;-69
2024/01/31 03:04:39;;;;;;;1.95;0.68;;;8.70;83.20;;;;;;5034592;28;20083;-69
2024/01/31 03:07:05;;;;;;;0.65;0.50;;;8.80;83.20;;;;;;5034037;28;20033;-70
2024/01/31 03:09:30;;;;;;;0.68;0.43;;;8.70;83.10;;;;;;5033750;28;20477;-69
2024/01/31 03:11:56;;;;;;;0.52;0.40;;;8.80;83.10;;;;;;5016338;28;20087;-69
2024/01/31 03:14:22;;;;;;;0.50;0.50;;;8.70;83.10;;;;;;5032906;28;20149;-69
2024/01/31 03:16:48;;;;;;;0.93;0.50;;;8.70;83.20;;;;;;5033822;28;20040;-70
2024/01/31 03:19:15;;;;;;;1.85;0.40;;;8.70;83.30;;;;;;5027245;28;20025;-69
2024/01/31 03:21:41;;;;;;;0.30;0.30;;;8.70;83.30;;;;;;5042042;28;20029;-69
2024/01/31 03:24:07;;;;;;;2.55;0.60;;;8.70;83.30;;;;;;5029623;28;20389;-70
2024/01/31 03:26:32;;;;;;;0.73;0.47;;;8.70;83.30;;;;;;5033309;28;20504;-69
2024/01/31 03:29:01;;;;;;;0.65;0.40;;;8.70;83.30;;;;;;5030033;28;20056;-69
2024/01/31 03:31:27;;;;;;;1.85;0.40;;;8.70;83.30;;;;;;5054983;28;20504;-69
2024/01/31 03:33:53;;;;;;;1.00;0.40;;;8.70;83.20;;;;;;5020133;28;20396;-68
2024/01/31 03:36:19;;;;;;;0.68;0.28;;;8.70;83.10;;;;;;5025253;28;20026;-68
2024/01/31 03:38:45;;;;;;;1.05;0.63;;;8.70;83.00;;;;;;5022295;28;20070;-69
2024/01/31 03:41:10;;;;;;;0.65;0.43;;;8.70;83.10;;;;;;5024176;28;20040;-68
2024/01/31 03:43:36;;;;;;;1.23;0.98;;;8.60;83.10;;;;;;5024004;28;20493;-68
2024/01/31 03:46:05;;;;;;;0.30;0.30;;;8.60;83.30;;;;;;5019211;28;20113;-69
2024/01/31 03:48:31;;;;;;;0.75;0.50;;;8.60;83.50;;;;;;5025649;28;20048;-68
2024/01/31 03:51:00;;;;;;;0.50;0.40;;;8.60;83.50;;;;;;5031585;28;20018;-69
2024/01/31 03:53:26;;;;;;;0.38;0.28;;;8.60;83.50;;;;;;5020453;28;20034;-68
2024/01/31 03:55:52;;;;;;;0.45;0.45;;;8.60;83.40;;;;;;5022016;28;20358;-69
2024/01/31 03:58:18;;;;;;;1.20;0.57;;;8.60;83.30;;;;;;5024808;28;20033;-70
2024/01/31 04:00:44;;;;;;;0.30;0.30;;;8.70;83.20;;;;;;5025633;28;20053;-69
2024/01/31 04:03:10;;;;;;;0.47;0.40;;;8.70;83.10;;;;;;5028178;28;20108;-69
2024/01/31 04:05:36;;;;;;;0.40;0.40;;;8.70;83.10;;;;;;5024108;28;20167;-69
2024/01/31 04:08:02;;;;;;;0.63;0.50;;;8.70;83.10;;;;;;5029258;28;20128;-69
2024/01/31 04:10:28;;;;;;;2.13;0.50;;;8.70;83.10;;;;;;5026402;28;20095;-69
2024/01/31 04:12:54;;;;;;;0.43;0.30;;;8.60;83.10;;;;;;5036751;28;20030;-70
2024/01/31 04:15:20;;;;;;;0.90;0.40;;;8.60;83.20;;;;;;5033336;28;20140;-69
2024/01/31 04:17:45;;;;;;;0.63;0.40;;;8.60;83.10;;;;;;5032481;28;20435;-69
2024/01/31 04:20:12;;;;;;;0.68;0.60;;;8.60;83.20;;;;;;5029106;28;20017;-69
2024/01/31 04:22:38;;;;;;;0.65;0.47;;;8.60;83.20;;;;;;5026006;28;20080;-69
2024/01/31 04:25:05;;;;;;;0.52;0.40;;;8.60;83.20;;;;;;5061667;28;20484;-69
2024/01/31 04:27:31;;;;;;;0.35;0.32;;;8.60;83.20;;;;;;5032501;28;20030;-69
2024/01/31 04:29:56;;;;;;;2.85;0.95;;;8.60;83.20;;;;;;5030720;28;20095;-69
2024/01/31 04:32:23;;;;;;;3.42;0.63;;;8.60;83.30;;;;;;5059985;28;20116;-68
2024/01/31 04:34:51;;;;;;;1.15;0.85;;;8.50;83.30;;;;;;5031355;28;20032;-69
2024/01/31 04:37:17;;;;;;;0.60;0.60;;;8.60;83.20;;;;;;5032037;28;20444;-69
2024/01/31 04:39:43;;;;;;;1.45;0.95;;;8.50;83.20;;;;;;5029862;28;20091;-69
2024/01/31 04:42:09;;;;;;;1.02;0.68;;;8.50;83.30;;;;;;5013032;28;20026;-68
2024/01/31 04:44:35;;;;;;;1.85;0.68;;;8.50;83.40;;;;;;5022101;28;20033;-69
2024/01/31 04:47:01;;;;;;;0.30;0.30;;;8.50;83.60;;;;;;5026416;28;20033;-69
2024/01/31 04:49:27;;;;;;;0.40;0.28;;;8.50;83.60;;;;;;5018337;28;20022;-68
2024/01/31 04:51:53;;;;;;;1.13;0.60;;;8.50;83.50;;;;;;5021667;28;20037;-69
2024/01/31 04:54:19;;;;;;;0.40;0.40;;;8.50;83.40;;;;;;5022103;28;20017;-68
2024/01/31 04:56:45;;;;;;;0.57;0.50;;;8.50;83.30;;;;;;5023253;28;21475;-68
2024/01/31 04:59:11;;;;;;;0.85;0.45;;;8.50;83.30;;;;;;5021604;28;20022;-68
2024/01/31 05:01:37;;;;;;;0.70;0.50;;;8.50;83.40;;;;;;5022312;28;20025;-68
2024/01/31 05:04:03;;;;;;;0.75;0.50;;;8.50;83.50;;;;;;5023123;28;20098;-68
2024/01/31 05:06:29;;;;;;;0.40;0.40;;;8.50;83.40;;;;;;5021495;28;20033;-68
2024/01/31 05:08:54;;;;;;;1.08;0.70;;;8.50;83.50;;;;;;5025747;28;20037;-69
2024/01/31 05:11:20;;;;;;;1.10;0.63;;;8.50;83.60;;;;;;5035247;28;20026;-69
2024/01/31 05:13:46;;;;;;;1.00;0.60;;;8.50;83.60;;;;;;5026278;28;20481;-69
2024/01/31 05:16:11;;;;;;;0.80;0.65;;;8.50;83.60;;;;;;5027938;28;20047;-69
2024/01/31 05:18:37;;;;;;;0.95;0.43;;;8.50;83.60;;;;;;5018049;28;20022;-69
2024/01/31 05:21:04;;;;;;;0.60;0.60;;;8.50;83.40;;;;;;5026681;28;20041;-69
2024/01/31 05:23:29;;;;;;;0.95;0.52;;;8.50;83.40;;;;;;5030537;28;20087;-68
2024/01/31 05:25:55;;;;;;;1.70;0.40;;;8.50;83.50;;;;;;5027536;28;20040;-69
2024/01/31 05:28:21;;;;;;;1.67;0.75;;;8.50;83.50;;;;;;5032348;28;20076;-69
2024/01/31 05:30:47;;;;;;;2.95;0.75;;;8.50;83.40;;;;;;5037805;28;20457;-69
2024/01/31 05:33:13;;;;;;;1.00;0.88;;;8.50;83.60;;;;;;5033256;28;20030;-68
2024/01/31 05:35:39;;;;;;;0.70;0.32;;;8.50;83.60;;;;;;5022915;28;20451;-68
2024/01/31 05:38:05;;;;;;;1.20;1.02;;;8.50;83.60;;;;;;5024537;28;20053;-68
2024/01/31 05:40:31;;;;;;;2.20;0.68;;;8.50;83.60;;;;;;5022649;28;20021;-68
2024/01/31 05:42:57;;;;;;;0.47;0.40;;;8.50;83.70;;;;;;5026631;28;20495;-68
2024/01/31 05:45:24;;;;;;;2.03;0.93;;;8.50;83.70;;;;;;5027234;28;20026;-68
2024/01/31 05:47:50;;;;;;;1.50;0.68;;;8.50;83.70;;;;;;5027307;28;20061;-69
2024/01/31 05:50:15;;;;;;;0.70;0.68;;;8.50;83.70;;;;;;5023564;28;20113;-68
2024/01/31 05:52:41;;;;;;;1.10;0.80;;;8.40;83.60;;;;;;5039293;28;20022;-68
2024/01/31 05:55:07;;;;;;;2.72;0.50;;;8.50;83.80;;;;;;5024180;28;20049;-68
2024/01/31 05:57:33;;;;;;;0.52;0.35;;;8.50;83.80;;;;;;5023950;28;20782;-68
2024/01/31 05:59:59;;;;;;;0.65;0.40;;;8.50;83.70;;;;;;5032610;28;20061;-69
2024/01/31 06:02:25;;;;;;;0.60;0.50;;;8.50;83.70;;;;;;5032515;28;20325;-69
2024/01/31 06:04:51;;;;;;;0.55;0.50;;;8.50;83.70;;;;;;5055517;28;20080;-69
2024/01/31 06:07:17;;;;;;;0.82;0.40;;;8.50;83.70;;;;;;5023559;28;20033;-69
2024/01/31 06:09:43;;;;;;;1.27;0.57;;;8.50;83.70;;;;;;5025486;28;20050;-69
2024/01/31 06:12:09;;;;;;;2.15;0.93;;;8.50;83.70;;;;;;5024134;28;20080;-69
2024/01/31 06:14:37;;;;;;;2.90;0.77;;;8.50;83.70;;;;;;5058359;28;20036;-69
2024/01/31 06:17:03;;;;;;;0.77;0.55;;;8.50;83.70;;;;;;5026381;28;20461;-68
2024/01/31 06:19:29;;;;;;;0.82;0.50;;;8.40;83.60;;;;;;5030685;28;20466;-69
2024/01/31 06:21:55;;;;;;;0.82;0.43;;;8.40;83.70;;;;;;5033295;28;20037;-69
2024/01/31 06:24:21;;;;;;;1.55;0.98;;;8.40;83.60;;;;;;5030866;28;20117;-69
2024/01/31 06:26:47;;;;;;;0.40;0.40;;;8.50;83.70;;;;;;5034318;28;20488;-69
2024/01/31 06:29:18;;;;;;;1.45;0.82;;;8.50;83.70;;;;;;5032604;28;20053;-68
2024/01/31 06:31:47;;;;;;;0.30;0.30;;;8.50;83.50;;;;;;5016799;28;20025;-68
2024/01/31 06:34:16;;;;;;;1.45;0.55;;;8.50;83.50;;;;;;5035894;28;20022;-68
2024/01/31 06:36:43;;;;;;;2.08;0.50;;;8.50;83.40;;;;;;5056519;28;20033;-68
2024/01/31 06:39:09;;;;;;;3.72;0.55;;;8.50;83.40;;;;;;5033428;28;20095;-69
2024/01/31 06:41:36;;;;;;;0.93;0.45;;;8.50;83.40;;;;;;5030403;28;20041;-69
2024/01/31 06:44:02;;;;;;;0.70;0.50;;;8.50;83.40;;;;;;5031650;28;20025;-68
2024/01/31 06:46:29;;;;;;;0.65;0.43;;;8.50;83.50;;;;;;5033253;28;20029;-69
2024/01/31 06:48:54;;;;;;;0.65;0.55;;;8.50;83.40;;;;;;5034906;28;20389;-69
2024/01/31 06:51:20;;;;;;;1.20;0.60;;;8.50;83.40;;;;;;5056012;28;20040;-68
2024/01/31 06:53:47;;;;;;;2.08;0.95;;;8.50;83.30;;;;;;5022079;28;20362;-69
2024/01/31 06:56:19;;;;;;;0.82;0.47;;;8.50;83.90;;;;;;5034170;28;20022;-68
2024/01/31 06:58:46;;;;;;;0.80;0.70;;;8.50;83.30;;;;;;5029239;28;20330;-68
2024/01/31 07:01:16;;;;;;;0.57;0.30;;;8.50;83.30;;;;;;5034203;28;20061;-68
2024/01/31 07:03:42;;;;;;;0.50;0.50;;;8.50;83.20;;;;;;5025883;28;20068;-68
2024/01/31 07:06:09;;;;;;;1.98;0.88;;;8.50;83.10;;;;;;5028597;28;20033;-69
2024/01/31 07:08:35;;;;;;;0.93;0.60;;;8.60;83.20;;;;;;5035553;28;20385;-68
2024/01/31 07:11:00;;;;;;;1.10;0.60;;;8.50;83.00;;;;;;5032505;28;20079;-69
2024/01/31 07:13:26;;;;;;;0.55;0.50;;;8.50;83.00;;;;;;5031971;28;20037;-69
2024/01/31 07:15:52;;;;;;;0.68;0.50;;;8.50;83.00;;;;;;5041070;28;20026;-69
2024/01/31 07:18:17;;;;;;;1.88;0.95;;;8.50;83.10;;;;;;5041944;28;20025;-69
2024/01/31 07:20:43;;;;;;;0.75;0.50;;;8.50;83.00;;;;;;5033958;28;20036;-69
2024/01/31 07:23:09;;;;;;;0.73;0.73;;;8.50;82.90;;;;;;5033894;28;20025;-69
2024/01/31 07:25:38;;;;;;;0.80;0.77;;;8.50;83.00;;;;;;5033645;28;20029;-70
2024/01/31 07:28:04;;;;;;;2.17;0.85;;;8.50;82.90;;;;;;5033416;28;20048;-69
2024/01/31 07:30:30;;;;;;;0.70;0.43;;;8.50;82.80;;;;;;5041092;28;20049;-69
2024/01/31 07:32:56;;;;;;;0.88;0.88;;;8.50;82.80;;;;;;5033224;28;20060;-69
2024/01/31 07:35:24;;;;;;;1.52;0.85;;;8.50;82.70;;;;;;5031801;28;20028;-69
2024/01/31 07:37:50;;;;;;;1.80;0.80;;;8.50;82.60;;;;;;5033181;28;20076;-69
2024/01/31 07:40:16;;;;;;;1.77;0.90;;;8.50;82.50;;;;;;5032474;28;20442;-69
2024/01/31 07:42:41;;;;;;;1.63;0.90;;;8.50;82.30;;;;;;5041536;28;20061;-69
2024/01/31 07:45:08;;;;;;;1.23;0.77;;;8.40;82.30;;;;;;5031127;28;20049;-69
2024/01/31 07:47:36;;;;;;;1.25;0.90;;;8.40;82.50;;;;;;5037691;28;20034;-68
2024/01/31 07:50:04;;;;;;;0.82;0.80;;;8.40;82.40;;;;;;5034849;28;20044;-68
2024/01/31 07:52:30;;;;;;;1.13;0.70;;;8.40;82.50;;;;;;5037441;28;20033;-68
2024/01/31 07:54:56;;;;;;;0.47;0.47;;;8.50;82.40;;;;;;5068064;28;20056;-69
2024/01/31 07:57:21;;;;;;;1.08;0.80;;;8.50;82.20;;;;;;5028883;28;20412;-69
2024/01/31 07:59:47;;;;;;;0.90;0.80;;;8.50;82.10;;;;;;5033079;28;20025;-69
2024/01/31 08:02:14;;;;;;;1.25;0.88;;;8.50;82.20;;;;;;5031368;28;20428;-69
2024/01/31 08:04:40;;;;;;;1.02;0.90;;;8.50;82.00;;;;;;5034646;28;20555;-69
2024/01/31 08:07:06;;;;;;;1.70;0.90;;;8.50;82.00;;;;;;5028368;28;20068;-69
2024/01/31 08:09:31;;;;;;;1.08;0.98;;;8.50;81.90;;;;;;5027972;28;20044;-69
2024/01/31 08:11:57;;;;;;;1.65;0.65;;;8.50;82.10;;;;;;5026757;28;20026;-69
2024/01/31 08:14:22;;;;;;;5.80;1.10;;;8.50;81.90;;;;;;5029580;28;20114;-69
2024/01/31 08:16:51;;;;;;;4.38;1.23;;;8.50;82.00;;;;;;5036344;28;20072;-69
2024/01/31 08:19:17;;;;;;;2.13;1.10;;;8.50;81.90;;;;;;5040247;28;20025;-69
2024/01/31 08:21:43;;;;;;;1.10;0.80;;;8.50;81.90;;;;;;5041009;28;20033;-69
2024/01/31 08:24:08;;;;;;;0.70;0.65;;;8.60;81.90;;;;;;5031244;28;20048;-69
2024/01/31 08:26:34;;;;;;;1.67;0.90;;;8.60;81.90;;;;;;5029730;28;20041;-69
2024/01/31 08:28:59;;;;;;;1.25;0.90;;;8.60;81.90;;;;;;5031788;28;20075;-69
2024/01/31 08:31:25;;;;;;;1.33;1.20;;;8.60;81.90;;;;;;5026397;28;20022;-69
2024/01/31 08:33:51;;;;;;;2.30;0.95;;;8.60;81.90;;;;;;5033860;28;20033;-69
2024/01/31 08:36:16;;;;;;;1.77;1.05;;;8.60;81.90;;;;;;5039160;28;20029;-65
2024/01/31 08:38:43;;;;;;;2.60;0.82;;;8.60;82.30;;;;;;5028809;28;20044;-67
2024/01/31 08:41:11;;;;;;;1.48;1.00;;;8.60;82.10;;;;;;5029411;28;20040;-64
2024/01/31 08:43:36;;;;;;;2.60;0.75;;;8.60;82.10;;;;;;5061019;28;20040;-63
2024/01/31 08:46:02;;;;;;;1.40;1.00;;;8.60;82.10;;;;;;5031115;28;20029;-64
2024/01/31 08:48:28;;;;;;;1.83;1.52;;;8.70;82.10;;;;;;5029296;28;20060;-63
2024/01/31 08:50:53;;;;;;;1.15;1.05;;;8.70;81.90;;;;;;5030653;28;20107;-66
2024/01/31 08:53:19;;;;;;;2.65;1.35;;;8.70;82.00;;;;;;5028493;28;20072;-63
2024/01/31 08:55:45;;;;;;;0.80;0.68;;;8.70;82.00;;;;;;5028321;28;20469;-68
2024/01/31 08:58:10;;;;;;;2.53;1.20;;;8.70;82.00;;;;;;5032258;28;20436;-65
2024/01/31 09:00:36;;;;;;;1.55;0.85;;;8.70;82.00;;;;;;5027294;28;20388;-63
2024/01/31 09:03:03;;;;;;;1.63;0.90;;;8.80;82.00;;;;;;5014658;28;20087;-63
2024/01/31 09:05:29;;;;;;;1.20;0.93;;;8.80;82.60;;;;;;5022475;28;20033;-69
2024/01/31 09:07:55;;;;;;;2.00;1.17;;;8.80;82.00;;;;;;5025938;28;20465;-64
2024/01/31 09:10:21;;;;;;;1.48;1.05;;;8.80;82.00;;;;;;5024632;28;20049;-64
2024/01/31 09:12:48;;;;;;;1.17;0.82;;;8.80;82.00;;;;;;5026739;28;20037;-64
2024/01/31 09:15:13;;;;;;;1.55;1.15;;;8.90;82.00;;;;;;5022737;28;20044;-67
2024/01/31 09:17:39;;;;;;;5.07;1.45;;;8.90;81.90;;;;;;5024019;28;20033;-67
2024/01/31 09:20:06;;;;;;;1.85;1.20;;;8.90;81.90;;;;;;5019783;28;20026;-67
2024/01/31 09:22:32;;;;;;;2.67;0.90;;;8.90;81.80;;;;;;5028124;28;20473;-67
2024/01/31 09:24:57;;;;;;;1.08;0.98;;;9.00;81.90;;;;;;5028620;28;20036;-67
2024/01/31 09:27:23;;;;;;;1.55;1.33;;;9.00;81.90;;;;;;5028236;28;20033;-66
2024/01/31 09:29:50;;;;;;;4.50;1.08;;;9.00;81.80;;;;;;5019992;28;20050;-68
2024/01/31 09:32:15;;;;;;;1.30;1.17;;;9.10;81.80;;;;;;5053556;28;20068;-68
2024/01/31 09:34:42;;;;;;;1.38;0.90;;;9.10;81.70;;;;;;5024413;28;20230;-64
2024/01/31 09:37:07;;;;;;;1.52;1.10;;;9.20;81.70;;;;;;5022311;28;20385;-65
2024/01/31 09:39:33;;;;;;;4.32;1.42;;;9.20;81.60;;;;;;5026991;28;20033;-65
2024/01/31 09:41:59;;;;;;;2.67;1.33;;;9.20;81.60;;;;;;5056593;28;20114;-65
2024/01/31 09:44:25;;;;;;;1.40;1.27;;;9.30;81.60;;;;;;5021637;28;20041;-65
2024/01/31 09:46:52;;;;;;;1.70;1.00;;;9.30;81.50;;;;;;5025467;28;20033;-65
2024/01/31 09:49:18;;;;;;;1.75;1.63;;;9.30;81.50;;;;;;5025985;28;20034;-65
2024/01/31 09:51:44;;;;;;;2.08;1.55;;;9.40;81.40;;;;;;5029055;28;20522;-64
2024/01/31 09:54:10;;;;;;;3.20;1.25;;;9.40;81.40;;;;;;5020713;28;20037;-65
2024/01/31 09:56:36;;;;;;;1.48;1.15;;;9.40;81.40;;;;;;5021439;28;20032;-65
2024/01/31 09:59:03;;;;;;;2.03;1.13;;;9.50;81.40;;;;;;5018763;28;20053;-65
2024/01/31 10:01:29;;;;;;;1.05;0.77;;;9.50;81.20;;;;;;5030835;28;20044;-65
2024/01/31 10:03:58;;;;;;;2.90;1.73;;;9.60;81.00;;;;;;5030144;28;20044;-65
2024/01/31 10:06:29;;;;;;;3.05;1.55;;;9.60;80.70;;;;;;5031887;28;20022;-65
2024/01/31 10:08:58;;;;;;;3.58;1.42;;;9.60;80.70;;;;;;5029139;28;20455;-67
2024/01/31 10:11:27;;;;;;;1.73;1.13;;;9.50;80.70;;;;;;5026224;28;20014;-65
2024/01/31 10:13:53;;;;;;;3.03;2.08;;;9.60;80.60;;;;;;5023206;28;20030;-66
2024/01/31 10:16:19;;;;;;;4.32;2.08;;;9.60;80.60;;;;;;5023925;28;20029;-65
2024/01/31 10:18:45;;;;;;;3.65;1.48;;;9.60;80.40;;;;;;5024003;28;20040;-67
2024/01/31 10:21:10;;;;;;;4.57;1.80;;;9.60;80.30;;;;;;5057398;28;20037;-65
2024/01/31 10:23:36;;;;;;;3.80;1.38;;;9.50;80.40;;;;;;5025474;28;20045;-66
2024/01/31 10:26:02;;;;;;;3.00;1.73;;;9.50;80.50;;;;;;5027161;28;20052;-66
2024/01/31 10:28:28;;;;;;;3.78;1.60;;;9.50;80.40;;;;;;5030600;28;20045;-67
2024/01/31 10:30:56;;;;;;;3.45;1.45;;;9.60;80.50;;;;;;5030269;28;20163;-67
2024/01/31 10:33:23;;;;;;;2.50;1.95;;;9.60;80.30;;;;;;5026757;28;20666;-67
2024/01/31 10:35:51;;;;;;;3.58;1.88;;;9.60;80.40;;;;;;5024144;28;20029;-67
2024/01/31 10:38:17;;;;;;;2.72;2.15;;;9.60;80.40;;;;;;5020271;28;20143;-66
2024/01/31 10:40:46;;;;;;;4.20;1.90;;;9.50;80.40;;;;;;5024263;28;20041;-65
2024/01/31 10:43:13;;;;;;;7.88;2.35;;;9.50;80.60;;;;;;5030695;28;20034;-66
2024/01/31 10:45:40;;;;;;;4.22;1.77;;;9.50;80.70;;;;;;5030722;28;20032;-67
2024/01/31 10:48:06;;;;;;;8.82;2.97;;;9.50;80.60;;;;;;5030007;28;20157;-65
2024/01/31 10:50:32;;;;;;;5.97;2.97;;;9.60;80.60;;;;;;5023307;28;20028;-65
2024/01/31 10:52:59;;;;;;;6.05;2.72;;;9.60;80.70;;;;;;5028244;28;20469;-65
2024/01/31 10:55:27;;;;;;;4.53;2.60;;;9.50;80.80;;;;;;5021496;28;20559;-67
2024/01/31 10:57:54;;;;;;;6.32;2.85;;;9.50;80.90;;;;;;5060724;28;20029;-67
2024/01/31 11:00:28;;;;;;;6.60;3.83;;;9.50;81.10;;;;;;5028665;28;20048;-66
2024/01/31 11:02:56;;;;;;;5.03;3.50;;;9.60;81.10;;;;;;5032200;28;20032;-67
2024/01/31 11:05:24;;;;;;;3.40;2.30;;;9.50;81.20;;;;;;5026074;28;20026;-67
2024/01/31 11:07:50;;;;;;;7.03;3.60;;;9.60;81.40;;;;;;5031317;28;20033;-65
2024/01/31 11:10:23;;;;;;;12.50;5.32;;;9.60;81.50;;;;;;5030379;28;20027;-65
2024/01/31 11:13:14;;;;;;;10.75;4.05;;;9.50;81.60;;;;;;5036187;28;20021;-65
2024/01/31 11:15:40;;;;;;;11.45;4.53;;;9.50;81.60;;;;;;5019130;28;20367;-65
2024/01/31 11:18:14;;;;;;;11.52;4.95;;;9.50;81.80;;;;;;5031819;28;20480;-65
2024/01/31 11:20:44;;;;;;;9.63;4.53;;;9.60;82.20;;;;;;5029745;28;20053;-65
2024/01/31 11:23:18;;;;;;;11.48;5.30;;;9.60;82.30;;;;;;5032947;28;20076;-65
2024/01/31 11:25:45;;;;;;;10.98;4.88;;;9.60;82.30;;;;;;5051437;28;20033;-65
2024/01/31 11:28:12;;;;;;;16.55;6.05;;;9.50;82.40;;;;;;5026205;28;20049;-65
2024/01/31 11:30:41;;;;;;;13.57;5.90;;;9.60;82.50;;;;;;5028698;28;20033;-65
2024/01/31 11:33:06;;;;;;;11.43;4.38;;;9.60;82.50;;;;;;5016704;28;20072;-67
2024/01/31 11:35:33;;;;;;;14.20;4.97;;;9.60;82.50;;;;;;5025653;28;20120;-67
2024/01/31 11:37:59;;;;;;;13.55;6.15;;;9.70;82.60;;;;;;5028134;28;20061;-67
2024/01/31 11:40:26;;;;;;;9.73;5.93;;;9.70;82.50;;;;;;5026383;28;20037;-67
2024/01/31 11:42:53;;;;;;;7.78;4.13;;;9.70;82.50;;;;;;5030772;28;20041;-67
2024/01/31 11:45:21;;;;;;;16.10;4.85;;;9.70;82.60;;;;;;5029158;28;20033;-65
2024/01/31 11:47:47;;;;;;;11.60;5.72;;;9.70;82.70;;;;;;5027817;28;20026;-65
2024/01/31 11:50:13;;;;;;;9.80;5.18;;;9.70;82.50;;;;;;5030346;28;20061;-65
2024/01/31 11:52:39;;;;;;;8.35;4.43;;;9.80;82.50;;;;;;5061161;28;20103;-66
2024/01/31 11:55:06;;;;;;;16.83;5.35;;;9.80;83.20;;;;;;5036662;28;20040;-66
2024/01/31 11:57:32;;;;;;;13.57;5.68;;;9.80;82.50;;;;;;5030156;28;20473;-67
2024/01/31 11:59:59;;;;;;;9.52;4.68;;;9.80;82.40;;;;;;5040910;28;20292;-67
2024/01/31 12:02:25;;;;;;;11.48;5.30;;;9.80;82.50;;;;;;5026289;28;20467;-67
2024/01/31 12:04:55;;;;;;;9.27;4.50;;;9.80;82.50;;;;;;5063862;28;20437;-67
2024/01/31 12:07:21;;;;;;;12.07;5.63;;;9.80;82.50;;;;;;5038506;28;20037;-67
2024/01/31 12:09:47;;;;;;;12.50;6.05;;;9.80;82.50;;;;;;5029710;28;20042;-67
2024/01/31 12:12:13;;;;;;;12.77;4.70;;;9.90;82.50;;;;;;5031412;28;20043;-67
2024/01/31 12:14:42;;;;;;;10.38;5.18;;;9.80;82.30;;;;;;5034370;28;20358;-67
2024/01/31 12:17:24;;;;;;;11.88;5.25;;;9.90;82.40;;;;;;5037339;28;20469;-67
2024/01/31 12:20:01;;;;;;;14.30;6.22;;;9.90;82.30;;;;;;5038535;28;20112;-65
2024/01/31 12:22:27;;;;;;;8.23;4.93;;;9.80;82.00;;;;;;5033769;28;20041;-65
2024/01/31 12:24:52;;;;;;;14.65;4.50;;;9.80;82.00;;;;;;5021345;28;20546;-67
2024/01/31 12:27:18;;;;;;;9.02;4.50;;;9.80;82.00;;;;;;5026403;28;20358;-67
2024/01/31 12:29:46;;;;;;;8.73;4.47;;;9.80;81.80;;;;;;5028749;28;20431;-67
2024/01/31 12:32:12;;;;;;;8.10;4.88;;;9.80;81.30;;;;;;5029090;28;20029;-67
2024/01/31 12:34:37;;;;;;;7.15;4.20;;;9.80;81.20;;;;;;5032314;28;20025;-67
2024/01/31 12:37:03;;;;;;;8.95;4.45;;;9.80;80.90;;;;;;5028776;28;20045;-67
2024/01/31 12:39:29;;;;;;;7.95;3.92;;;9.80;80.00;;;;;;5029448;28;20034;-67
2024/01/31 12:41:55;;;;;;;9.68;3.78;;;9.70;79.70;;;;;;5028120;28;20029;-65
2024/01/31 12:44:20;;;;;;;5.32;3.70;;;9.70;79.10;;;;;;5033491;28;20048;-65
2024/01/31 12:46:47;;;;;;;11.63;4.10;;;9.70;78.90;;;;;;5025780;28;20065;-65
2024/01/31 12:49:12;;;;;;;7.50;4.03;;;9.60;77.70;;;;;;5021735;28;20029;-65
2024/01/31 12:51:39;;;;;;;7.10;3.67;;;9.60;77.80;;;;;;5060453;28;20040;-65